Time;durP1;ratioP1;P1;durP2;ratioP2;P2;SDS_P1;SDS_P2;PMS_P1;PMS_P2;Temp;Humidity;BMP_temperature;BMP_pressure;BME280_temperature;BME280_humidity;BME280_pressure;Samples;Min_cycle;Max_cycle;Signal;HPM_P1;HPM_P2
2022/03/26 00:01:33;;;;;;;31.73;19.45;;;7.00;97.30;;;;;;5048864;28;20041;-75
2022/03/26 00:03:58;;;;;;;32.55;19.13;;;6.90;97.60;;;;;;5044144;28;20049;-77
2022/03/26 00:06:24;;;;;;;33.60;18.95;;;6.90;97.90;;;;;;5040586;28;20114;-77
2022/03/26 00:08:49;;;;;;;35.10;19.10;;;6.90;98.30;;;;;;5044014;28;20421;-76
2022/03/26 00:11:16;;;;;;;33.60;19.00;;;6.80;98.70;;;;;;5045866;28;20123;-77
2022/03/26 00:13:42;;;;;;;35.28;19.23;;;6.80;99.10;;;;;;5044469;28;20079;-77
2022/03/26 00:16:07;;;;;;;36.08;19.83;;;6.70;99.30;;;;;;5044216;28;20067;-77
2022/03/26 00:18:33;;;;;;;36.20;19.75;;;6.70;99.40;;;;;;5048803;28;20484;-77
2022/03/26 00:20:59;;;;;;;34.55;19.13;;;6.70;99.60;;;;;;5048291;28;20040;-77
2022/03/26 00:23:24;;;;;;;33.40;19.42;;;6.70;99.60;;;;;;5045788;28;20037;-77
2022/03/26 00:25:50;;;;;;;32.90;19.42;;;6.70;99.70;;;;;;5041404;28;20108;-77
2022/03/26 00:28:16;;;;;;;35.70;20.52;;;6.60;99.70;;;;;;5045613;28;20110;-78
2022/03/26 00:30:42;;;;;;;33.38;20.10;;;6.60;99.80;;;;;;5046078;28;20080;-77
2022/03/26 00:33:08;;;;;;;37.38;20.60;;;6.60;99.90;;;;;;5041980;28;20517;-76
2022/03/26 00:35:33;;;;;;;36.33;21.42;;;6.60;99.90;;;;;;5040755;28;20045;-77
2022/03/26 00:37:59;;;;;;;38.95;21.10;;;6.50;99.90;;;;;;5042563;28;20071;-77
2022/03/26 00:40:25;;;;;;;36.83;21.70;;;6.50;99.90;;;;;;5041994;28;20068;-77
2022/03/26 00:42:50;;;;;;;41.45;22.40;;;6.50;99.90;;;;;;5047988;28;20475;-77
2022/03/26 00:45:16;;;;;;;38.45;22.65;;;6.40;99.90;;;;;;5047527;28;20127;-77
2022/03/26 00:47:42;;;;;;;38.83;23.60;;;6.40;99.90;;;;;;5044101;28;20055;-77
2022/03/26 00:50:08;;;;;;;43.85;25.73;;;6.40;99.90;;;;;;5045453;28;20047;-77
2022/03/26 00:52:34;;;;;;;41.08;24.73;;;6.40;99.90;;;;;;5042723;28;20155;-77
2022/03/26 00:54:59;;;;;;;46.50;25.10;;;6.30;99.90;;;;;;5030182;28;20137;-77
2022/03/26 00:57:25;;;;;;;46.67;25.42;;;6.30;99.90;;;;;;5046384;28;20041;-76
2022/03/26 00:59:51;;;;;;;42.65;23.58;;;6.20;99.90;;;;;;5045227;28;20112;-77
2022/03/26 01:02:17;;;;;;;43.78;24.02;;;6.20;99.90;;;;;;5044834;28;20045;-77
2022/03/26 01:04:42;;;;;;;41.90;24.15;;;6.20;99.90;;;;;;5040013;28;20048;-76
2022/03/26 01:07:11;;;;;;;39.83;24.13;;;6.20;99.90;;;;;;5045098;28;20129;-77
2022/03/26 01:09:37;;;;;;;42.85;23.80;;;6.20;99.90;;;;;;5045001;28;20098;-77
2022/03/26 01:12:02;;;;;;;38.97;22.92;;;6.10;99.90;;;;;;5041470;28;20382;-77
2022/03/26 01:14:29;;;;;;;41.67;23.35;;;6.10;99.90;;;;;;5048911;28;20040;-76
2022/03/26 01:16:54;;;;;;;41.30;22.50;;;6.10;99.90;;;;;;5045756;28;20041;-78
2022/03/26 01:19:20;;;;;;;41.45;23.65;;;6.10;99.90;;;;;;5044794;28;20037;-78
2022/03/26 01:21:45;;;;;;;39.03;22.20;;;6.10;99.90;;;;;;5048867;28;20132;-78
2022/03/26 01:24:11;;;;;;;41.72;22.52;;;6.10;99.90;;;;;;5042718;28;20455;-78
2022/03/26 01:26:37;;;;;;;44.22;23.67;;;6.00;99.90;;;;;;5045807;28;20041;-77
2022/03/26 01:29:02;;;;;;;41.28;23.15;;;6.00;99.90;;;;;;5046404;28;20374;-78
2022/03/26 01:31:28;;;;;;;44.20;23.70;;;6.00;99.90;;;;;;5045870;28;20053;-77
2022/03/26 01:33:54;;;;;;;43.70;24.63;;;6.00;99.90;;;;;;5044947;28;20340;-77
2022/03/26 01:36:19;;;;;;;43.65;24.00;;;6.00;99.90;;;;;;5047210;28;20120;-77
2022/03/26 01:38:45;;;;;;;44.97;24.63;;;6.00;99.90;;;;;;5045442;28;20071;-77
2022/03/26 01:41:11;;;;;;;47.90;25.90;;;5.90;99.90;;;;;;5043986;28;20132;-77
2022/03/26 01:43:39;;;;;;;45.42;24.73;;;5.90;99.90;;;;;;5047836;28;20041;-77
2022/03/26 01:46:04;;;;;;;49.33;25.83;;;5.90;99.90;;;;;;5043743;28;20037;-77
2022/03/26 01:48:30;;;;;;;48.30;25.70;;;5.90;99.90;;;;;;5044261;28;20048;-77
2022/03/26 01:50:55;;;;;;;46.80;25.77;;;5.90;99.90;;;;;;5032977;28;20128;-77
2022/03/26 01:53:21;;;;;;;47.28;25.75;;;5.80;99.90;;;;;;5038570;28;20505;-77
2022/03/26 01:55:48;;;;;;;48.28;26.00;;;5.80;99.90;;;;;;5046883;28;21808;-77
2022/03/26 01:58:14;;;;;;;46.95;25.50;;;5.80;99.90;;;;;;5033228;28;20041;-77
2022/03/26 02:00:40;;;;;;;49.88;27.17;;;5.70;99.90;;;;;;5047212;28;20108;-77
2022/03/26 02:03:07;;;;;;;50.42;27.67;;;5.70;99.90;;;;;;5043509;28;20041;-77
2022/03/26 02:05:33;;;;;;;50.17;27.63;;;5.70;99.90;;;;;;5043382;28;20383;-76
2022/03/26 02:07:58;;;;;;;46.33;25.95;;;5.70;99.90;;;;;;5043512;28;20045;-78
2022/03/26 02:10:24;;;;;;;49.28;26.90;;;5.60;99.90;;;;;;5043945;28;20056;-78
2022/03/26 02:12:49;;;;;;;49.72;27.23;;;5.60;99.90;;;;;;5043271;28;20140;-77
2022/03/26 02:15:16;;;;;;;49.22;27.98;;;5.60;99.90;;;;;;5048106;28;20045;-78
2022/03/26 02:17:42;;;;;;;47.58;26.35;;;5.60;99.90;;;;;;5043553;28;20429;-77
2022/03/26 02:20:10;;;;;;;50.65;26.30;;;5.50;99.90;;;;;;5048874;28;20069;-77
2022/03/26 02:22:37;;;;;;;47.17;25.88;;;5.50;99.90;;;;;;5046109;28;20044;-77
2022/03/26 02:25:05;;;;;;;47.38;25.75;;;5.50;99.90;;;;;;5038767;28;20107;-78
2022/03/26 02:27:31;;;;;;;48.33;27.23;;;5.50;99.90;;;;;;5044198;28;20222;-77
2022/03/26 02:29:57;;;;;;;47.08;26.17;;;5.50;99.90;;;;;;5043049;28;20169;-78
2022/03/26 02:32:27;;;;;;;44.28;24.17;;;5.50;99.90;;;;;;5045840;28;20168;-77
2022/03/26 02:34:54;;;;;;;49.70;26.67;;;5.50;99.90;;;;;;5039768;28;20041;-77
2022/03/26 02:37:20;;;;;;;47.42;25.83;;;5.40;99.90;;;;;;5045124;28;20109;-77
2022/03/26 02:39:46;;;;;;;49.60;27.27;;;5.40;99.90;;;;;;5059052;28;20045;-77
2022/03/26 02:42:13;;;;;;;47.90;26.50;;;5.40;99.90;;;;;;5043635;28;20040;-78
2022/03/26 02:44:39;;;;;;;49.15;27.05;;;5.40;99.90;;;;;;5046792;28;20076;-77
2022/03/26 02:47:07;;;;;;;48.35;26.90;;;5.30;99.90;;;;;;5044257;28;20045;-77
2022/03/26 02:49:32;;;;;;;47.33;26.65;;;5.30;99.90;;;;;;5047767;28;20363;-77
2022/03/26 02:51:58;;;;;;;49.75;27.42;;;5.30;99.90;;;;;;5061474;28;20060;-77
2022/03/26 02:54:23;;;;;;;50.88;27.05;;;5.30;99.90;;;;;;5042749;28;20120;-77
2022/03/26 02:56:51;;;;;;;51.47;26.65;;;5.20;99.90;;;;;;5043265;28;20056;-77
2022/03/26 02:59:17;;;;;;;51.55;26.58;;;5.30;99.90;;;;;;5042236;28;20098;-77
2022/03/26 03:01:44;;;;;;;52.45;27.58;;;5.20;99.90;;;;;;5041483;28;20450;-77
2022/03/26 03:04:10;;;;;;;53.90;27.30;;;5.20;99.90;;;;;;5027985;28;20056;-77
2022/03/26 03:06:35;;;;;;;53.95;28.90;;;5.20;99.90;;;;;;5042403;28;20366;-75
2022/03/26 03:09:02;;;;;;;53.22;27.95;;;5.10;99.90;;;;;;5040582;28;20087;-77
2022/03/26 03:11:28;;;;;;;50.88;28.80;;;5.10;99.90;;;;;;5042432;28;20060;-78
2022/03/26 03:13:54;;;;;;;55.30;29.65;;;5.10;99.90;;;;;;5046997;28;20049;-76
2022/03/26 03:16:19;;;;;;;52.85;28.73;;;5.10;99.90;;;;;;5047234;28;20483;-78
2022/03/26 03:18:45;;;;;;;53.00;29.05;;;5.10;99.90;;;;;;5029079;28;20363;-77
2022/03/26 03:21:10;;;;;;;52.22;28.85;;;5.10;99.90;;;;;;5045282;28;20049;-77
2022/03/26 03:23:36;;;;;;;50.60;27.65;;;5.00;99.90;;;;;;5039175;28;20033;-76
2022/03/26 03:26:01;;;;;;;51.70;28.13;;;5.10;99.90;;;;;;5044250;28;20356;-77
2022/03/26 03:28:27;;;;;;;49.20;27.08;;;5.00;99.90;;;;;;5049054;28;20048;-78
2022/03/26 03:30:53;;;;;;;49.42;27.20;;;5.00;99.90;;;;;;5047445;28;20033;-77
2022/03/26 03:33:19;;;;;;;54.47;28.83;;;5.00;99.90;;;;;;5049461;28;20049;-78
2022/03/26 03:35:45;;;;;;;50.60;27.95;;;5.00;99.90;;;;;;5046771;28;20044;-78
2022/03/26 03:38:10;;;;;;;48.15;26.80;;;5.00;99.90;;;;;;5047819;28;20411;-75
2022/03/26 03:40:36;;;;;;;48.20;26.92;;;4.90;99.90;;;;;;5044282;28;20453;-77
2022/03/26 03:43:02;;;;;;;47.30;26.77;;;4.90;99.90;;;;;;5043339;28;20053;-77
2022/03/26 03:45:28;;;;;;;49.33;26.45;;;4.90;99.90;;;;;;5049585;28;20155;-78
2022/03/26 03:47:53;;;;;;;53.75;28.85;;;4.90;99.90;;;;;;5046776;28;20522;-78
2022/03/26 03:50:19;;;;;;;51.25;28.08;;;4.90;99.90;;;;;;5046948;28;20048;-78
2022/03/26 03:52:45;;;;;;;53.78;27.45;;;4.80;99.90;;;;;;5038209;28;20040;-78
2022/03/26 03:55:11;;;;;;;54.28;28.90;;;4.80;99.90;;;;;;5045027;28;20096;-78
2022/03/26 03:57:42;;;;;;;51.80;29.05;;;4.80;99.90;;;;;;5049372;28;20120;-77
2022/03/26 04:00:09;;;;;;;53.10;27.92;;;4.80;99.90;;;;;;5046496;28;20048;-77
2022/03/26 04:02:35;;;;;;;49.05;25.92;;;4.80;99.90;;;;;;5037900;28;20049;-77
2022/03/26 04:05:01;;;;;;;55.47;28.65;;;4.80;99.90;;;;;;5051962;28;20121;-78
2022/03/26 04:07:26;;;;;;;51.72;27.30;;;4.70;99.90;;;;;;5049786;28;20051;-76
2022/03/26 04:09:52;;;;;;;55.17;29.50;;;4.70;99.90;;;;;;5048555;28;20124;-79
2022/03/26 04:12:17;;;;;;;49.67;27.60;;;4.70;99.90;;;;;;5049351;28;20044;-78
2022/03/26 04:14:44;;;;;;;55.47;29.83;;;4.70;99.90;;;;;;5045613;28;20103;-78
2022/03/26 04:17:11;;;;;;;53.42;29.33;;;4.70;99.90;;;;;;5045122;28;20052;-78
2022/03/26 04:19:37;;;;;;;57.38;29.52;;;4.70;99.90;;;;;;5045835;28;20049;-77
2022/03/26 04:22:07;;;;;;;58.75;29.75;;;4.70;99.90;;;;;;5036718;28;20041;-78
2022/03/26 04:24:35;;;;;;;53.63;29.20;;;4.70;99.90;;;;;;5046326;28;20140;-79
2022/03/26 04:27:03;;;;;;;57.42;30.08;;;4.60;99.90;;;;;;5049898;28;20061;-78
2022/03/26 04:29:29;;;;;;;58.05;29.73;;;4.60;99.90;;;;;;5050519;28;20045;-76
2022/03/26 04:31:54;;;;;;;56.17;29.27;;;4.60;99.90;;;;;;5046206;28;20052;-78
2022/03/26 04:34:20;;;;;;;57.15;29.38;;;4.60;99.90;;;;;;5048292;28;20051;-78
2022/03/26 04:36:45;;;;;;;57.70;30.50;;;4.60;99.90;;;;;;5036453;28;20398;-78
2022/03/26 04:39:11;;;;;;;60.35;30.20;;;4.60;99.90;;;;;;5046325;28;20048;-78
2022/03/26 04:41:37;;;;;;;60.05;31.05;;;4.60;99.90;;;;;;5047163;28;20049;-77
2022/03/26 04:44:02;;;;;;;58.30;30.17;;;4.50;99.90;;;;;;5043442;28;20045;-78
2022/03/26 04:46:28;;;;;;;57.88;29.98;;;4.50;99.90;;;;;;5061905;28;20469;-78
2022/03/26 04:48:54;;;;;;;58.78;29.05;;;4.50;99.90;;;;;;5040036;28;20077;-78
2022/03/26 04:51:19;;;;;;;58.17;29.63;;;4.50;99.90;;;;;;5044548;28;20197;-78
2022/03/26 04:53:45;;;;;;;56.97;29.35;;;4.50;99.90;;;;;;5043041;28;20052;-77
2022/03/26 04:56:11;;;;;;;55.22;29.60;;;4.50;99.90;;;;;;5042322;28;20053;-78
2022/03/26 04:58:37;;;;;;;54.45;27.88;;;4.40;99.90;;;;;;5045188;28;20041;-78
2022/03/26 05:01:02;;;;;;;55.83;28.88;;;4.40;99.90;;;;;;5045027;28;20037;-79
2022/03/26 05:03:28;;;;;;;54.90;29.38;;;4.40;99.90;;;;;;5048454;28;20045;-79
2022/03/26 05:05:54;;;;;;;56.13;27.95;;;4.30;99.90;;;;;;5041719;28;20055;-78
2022/03/26 05:08:20;;;;;;;57.90;30.17;;;4.30;99.90;;;;;;5042536;28;20045;-79
2022/03/26 05:10:46;;;;;;;60.53;30.95;;;4.30;99.90;;;;;;5041804;28;20060;-79
2022/03/26 05:13:12;;;;;;;60.47;30.42;;;4.30;99.90;;;;;;5041962;28;20053;-79
2022/03/26 05:15:37;;;;;;;57.83;30.17;;;4.30;99.90;;;;;;5046577;28;20041;-79
2022/03/26 05:18:03;;;;;;;55.42;29.15;;;4.20;99.90;;;;;;5043541;28;20037;-78
2022/03/26 05:20:29;;;;;;;57.47;30.23;;;4.20;99.90;;;;;;5044089;28;20324;-78
2022/03/26 05:22:54;;;;;;;60.00;29.20;;;4.20;99.90;;;;;;5039638;28;20525;-77
2022/03/26 05:25:21;;;;;;;59.55;30.17;;;4.10;99.90;;;;;;5043339;28;20371;-79
2022/03/26 05:27:51;;;;;;;58.40;29.80;;;4.10;99.90;;;;;;5040170;28;20052;-79
2022/03/26 05:30:18;;;;;;;56.42;29.30;;;4.10;99.90;;;;;;5042905;28;20514;-77
2022/03/26 05:32:44;;;;;;;57.17;27.77;;;4.10;99.90;;;;;;5042244;28;20041;-79
2022/03/26 05:35:13;;;;;;;53.95;28.42;;;4.10;99.90;;;;;;5042523;28;20056;-79
2022/03/26 05:37:49;;;;;;;55.65;28.13;;;4.10;99.90;;;;;;5042261;28;20052;-78
2022/03/26 05:40:17;;;;;;;55.33;28.25;;;4.10;99.90;;;;;;5038581;28;20356;-78
2022/03/26 05:42:45;;;;;;;56.35;29.02;;;4.10;99.90;;;;;;5034856;28;20052;-78
2022/03/26 05:45:11;;;;;;;54.03;28.95;;;4.10;99.90;;;;;;5044353;28;20075;-79
2022/03/26 05:47:40;;;;;;;55.88;27.98;;;4.10;99.90;;;;;;5043175;28;20068;-77
2022/03/26 05:50:08;;;;;;;60.58;29.85;;;4.10;99.90;;;;;;5037241;28;20064;-78
2022/03/26 05:52:34;;;;;;;64.47;32.28;;;4.10;99.90;;;;;;5055436;28;20051;-78
2022/03/26 05:55:00;;;;;;;58.53;29.80;;;4.10;99.90;;;;;;5048510;28;20061;-79
2022/03/26 05:57:25;;;;;;;71.70;33.72;;;4.10;99.90;;;;;;5046212;28;20080;-79
2022/03/26 05:59:51;;;;;;;64.28;33.05;;;4.10;99.90;;;;;;5044578;28;20069;-79
2022/03/26 06:02:16;;;;;;;67.20;34.00;;;4.10;99.90;;;;;;5045411;28;20059;-80
2022/03/26 06:04:43;;;;;;;60.33;30.30;;;4.00;99.90;;;;;;5041328;28;20073;-79
2022/03/26 06:07:09;;;;;;;60.40;31.42;;;4.10;99.90;;;;;;5045082;28;20066;-80
2022/03/26 06:09:38;;;;;;;62.15;31.45;;;4.10;99.90;;;;;;5042024;28;20068;-79
2022/03/26 06:12:05;;;;;;;60.90;31.42;;;4.10;99.90;;;;;;5055148;28;20124;-79
2022/03/26 06:14:31;;;;;;;60.08;30.58;;;4.20;99.90;;;;;;5044663;28;20041;-78
2022/03/26 06:16:56;;;;;;;60.80;31.65;;;4.20;99.90;;;;;;5039901;28;20051;-78
2022/03/26 06:19:22;;;;;;;62.85;31.92;;;4.20;99.90;;;;;;5040394;28;20087;-77
2022/03/26 06:21:48;;;;;;;63.88;32.75;;;4.30;99.90;;;;;;5038933;28;20889;-78
2022/03/26 06:24:14;;;;;;;68.30;34.15;;;4.30;99.90;;;;;;5043063;28;20419;-79
2022/03/26 06:26:43;;;;;;;73.45;35.88;;;4.30;99.90;;;;;;5049234;28;20155;-79
2022/03/26 06:29:09;;;;;;;71.75;35.38;;;4.30;99.90;;;;;;5044465;28;20116;-78
2022/03/26 06:31:35;;;;;;;67.10;34.85;;;4.30;99.90;;;;;;5045979;28;20154;-78
2022/03/26 06:34:01;;;;;;;75.50;36.67;;;4.30;99.90;;;;;;5039535;28;20124;-78
2022/03/26 06:36:27;;;;;;;82.75;39.90;;;4.50;99.90;;;;;;5037685;28;20167;-79
2022/03/26 06:38:52;;;;;;;82.18;40.50;;;4.50;99.90;;;;;;5040402;28;20037;-75
2022/03/26 06:41:18;;;;;;;85.32;40.28;;;4.60;99.90;;;;;;5041989;28;20064;-80
2022/03/26 06:43:45;;;;;;;81.63;40.00;;;4.70;99.90;;;;;;5042318;28;20044;-79
2022/03/26 06:46:11;;;;;;;79.60;40.72;;;4.70;99.90;;;;;;5041064;28;20076;-78
2022/03/26 06:48:37;;;;;;;82.35;39.60;;;4.80;99.90;;;;;;5043230;28;20525;-80
2022/03/26 06:51:04;;;;;;;83.53;40.88;;;4.90;99.90;;;;;;5039863;28;20077;-79
2022/03/26 06:53:30;;;;;;;83.18;41.80;;;4.90;99.90;;;;;;5042651;28;20098;-79
2022/03/26 06:55:56;;;;;;;90.03;44.15;;;5.00;99.90;;;;;;5041821;28;20049;-77
2022/03/26 06:58:23;;;;;;;102.65;49.70;;;5.10;99.90;;;;;;5048371;28;20352;-79
2022/03/26 07:00:49;;;;;;;113.10;52.72;;;5.20;99.90;;;;;;5044740;28;20159;-79
2022/03/26 07:03:15;;;;;;;117.00;56.60;;;5.30;99.90;;;;;;5043951;28;20491;-79
2022/03/26 07:05:40;;;;;;;118.10;56.40;;;5.40;99.90;;;;;;5044441;28;20101;-79
2022/03/26 07:08:06;;;;;;;117.43;57.58;;;5.50;99.90;;;;;;5045388;28;20037;-78
2022/03/26 07:10:32;;;;;;;116.03;55.00;;;5.60;99.90;;;;;;5051073;28;20048;-79
2022/03/26 07:12:57;;;;;;;119.00;55.45;;;5.70;99.90;;;;;;5048132;28;20057;-79
2022/03/26 07:15:23;;;;;;;117.75;57.13;;;5.70;99.90;;;;;;5066820;28;20100;-80
2022/03/26 07:17:48;;;;;;;116.18;56.30;;;5.80;99.90;;;;;;5047452;28;20037;-81
2022/03/26 07:20:14;;;;;;;111.53;55.70;;;5.90;99.90;;;;;;5047674;28;20045;-81
2022/03/26 07:22:41;;;;;;;123.32;56.60;;;6.00;99.90;;;;;;5047438;28;20784;-80
2022/03/26 07:25:08;;;;;;;116.75;55.03;;;6.10;99.90;;;;;;5049370;28;20045;-77
2022/03/26 07:27:34;;;;;;;121.65;57.45;;;6.20;99.90;;;;;;5041283;28;20048;-80
2022/03/26 07:30:00;;;;;;;124.60;58.25;;;6.30;99.90;;;;;;5048484;28;20119;-76
2022/03/26 07:32:27;;;;;;;112.97;55.92;;;6.40;99.90;;;;;;5046896;28;20447;-78
2022/03/26 07:34:53;;;;;;;113.65;55.75;;;6.40;99.90;;;;;;5046019;28;20102;-78
2022/03/26 07:37:19;;;;;;;116.60;55.78;;;6.50;99.90;;;;;;5047031;28;20041;-78
2022/03/26 07:39:45;;;;;;;110.38;54.15;;;6.60;99.90;;;;;;5048516;28;20099;-79
2022/03/26 07:42:11;;;;;;;113.70;55.42;;;6.70;99.90;;;;;;5039485;28;20554;-78
2022/03/26 07:44:36;;;;;;;113.40;54.35;;;6.80;99.90;;;;;;5043414;28;20147;-77
2022/03/26 07:47:02;;;;;;;108.53;53.25;;;6.90;99.90;;;;;;5039920;28;20493;-78
2022/03/26 07:49:28;;;;;;;110.80;52.40;;;7.00;99.90;;;;;;5040330;28;20730;-78
2022/03/26 07:51:54;;;;;;;110.75;52.63;;;7.10;99.90;;;;;;5049687;28;20060;-79
2022/03/26 07:54:19;;;;;;;101.07;50.30;;;7.20;99.90;;;;;;5045316;28;20726;-78
2022/03/26 07:56:46;;;;;;;99.95;49.92;;;7.40;99.90;;;;;;5049873;28;20068;-79
2022/03/26 07:59:12;;;;;;;98.32;49.88;;;7.40;99.90;;;;;;5049332;28;20080;-79
2022/03/26 08:01:37;;;;;;;99.05;51.45;;;7.60;99.90;;;;;;5044416;28;20061;-79
2022/03/26 08:04:03;;;;;;;99.35;48.45;;;7.70;99.90;;;;;;5042294;28;20064;-78
2022/03/26 08:06:29;;;;;;;93.22;48.35;;;7.80;99.90;;;;;;5051148;28;20178;-76
2022/03/26 08:08:54;;;;;;;95.78;47.60;;;7.90;99.90;;;;;;5049700;28;20398;-78
2022/03/26 08:11:20;;;;;;;87.88;45.45;;;8.00;99.90;;;;;;5047857;28;20141;-78
2022/03/26 08:13:45;;;;;;;84.88;45.22;;;8.20;99.90;;;;;;5046812;28;20055;-76
2022/03/26 08:16:11;;;;;;;92.20;46.10;;;8.30;99.90;;;;;;5049922;28;20367;-77
2022/03/26 08:18:37;;;;;;;84.22;45.63;;;8.50;99.90;;;;;;5050198;28;20529;-78
2022/03/26 08:21:03;;;;;;;84.80;43.92;;;8.60;99.90;;;;;;5045984;28;20033;-76
2022/03/26 08:23:29;;;;;;;84.90;44.13;;;8.70;99.90;;;;;;5044200;28;20037;-76
2022/03/26 08:28:39;;;;;;;81.18;42.60;;;9.00;99.90;;;;;;5040023;28;20076;-77
2022/03/26 08:31:05;;;;;;;74.22;38.35;;;9.10;99.90;;;;;;5027613;28;20041;-77
2022/03/26 08:33:30;;;;;;;73.18;37.60;;;9.30;99.90;;;;;;5044742;28;20053;-77
2022/03/26 08:35:56;;;;;;;70.72;35.85;;;9.40;99.90;;;;;;5041035;28;20044;-77
2022/03/26 08:38:22;;;;;;;68.53;35.70;;;9.50;99.90;;;;;;5046708;28;20041;-76
2022/03/26 08:40:48;;;;;;;65.55;34.33;;;9.80;99.90;;;;;;5047873;28;20462;-78
2022/03/26 08:43:14;;;;;;;56.13;31.67;;;10.10;99.90;;;;;;5046109;28;20049;-77
2022/03/26 08:45:41;;;;;;;64.78;32.30;;;10.20;99.90;;;;;;5045569;28;20037;-78
2022/03/26 08:48:07;;;;;;;57.10;30.48;;;10.30;99.90;;;;;;5043304;28;20050;-78
2022/03/26 08:50:33;;;;;;;53.38;29.15;;;10.40;99.90;;;;;;5047829;28;20386;-77
2022/03/26 08:52:59;;;;;;;56.38;30.67;;;10.60;99.00;;;;;;5028202;28;20049;-78
2022/03/26 08:55:25;;;;;;;56.08;29.88;;;10.80;99.90;;;;;;5049755;28;20048;-78
2022/03/26 08:57:51;;;;;;;59.63;32.05;;;10.90;99.10;;;;;;5049376;28;20442;-77
2022/03/26 09:00:17;;;;;;;53.10;29.55;;;11.00;99.10;;;;;;5048365;28;20132;-77
2022/03/26 09:02:44;;;;;;;57.38;31.05;;;11.10;99.60;;;;;;5048640;28;20128;-76
2022/03/26 09:05:12;;;;;;;60.22;33.00;;;11.20;99.40;;;;;;5044720;28;20565;-77
2022/03/26 09:07:38;;;;;;;56.83;29.92;;;11.30;99.50;;;;;;5037574;28;20083;-76
2022/03/26 09:10:04;;;;;;;58.15;29.85;;;11.40;98.50;;;;;;5050028;28;20775;-77
2022/03/26 09:12:30;;;;;;;55.10;29.48;;;11.60;97.30;;;;;;5049400;28;20048;-76
2022/03/26 09:14:56;;;;;;;52.83;28.50;;;11.60;97.10;;;;;;5050422;28;20040;-77
2022/03/26 09:17:21;;;;;;;52.97;28.70;;;11.70;96.00;;;;;;5043164;28;20124;-76
2022/03/26 09:19:47;;;;;;;51.45;28.10;;;11.80;96.30;;;;;;5041853;28;20124;-76
2022/03/26 09:22:13;;;;;;;50.38;28.52;;;11.90;94.90;;;;;;5048273;28;20131;-77
2022/03/26 09:24:38;;;;;;;57.13;29.05;;;12.00;95.40;;;;;;5049763;28;20052;-76
2022/03/26 09:27:04;;;;;;;52.45;28.33;;;12.10;95.70;;;;;;5045701;28;20143;-76
2022/03/26 09:29:29;;;;;;;54.03;27.35;;;12.20;94.90;;;;;;5047932;28;20230;-76
2022/03/26 09:31:55;;;;;;;48.60;27.63;;;12.30;93.50;;;;;;5049133;28;20088;-76
2022/03/26 09:34:21;;;;;;;49.65;26.50;;;12.40;92.50;;;;;;5030164;28;20459;-76
2022/03/26 09:36:47;;;;;;;46.45;26.65;;;12.40;91.90;;;;;;5044430;28;20036;-77
2022/03/26 09:39:13;;;;;;;50.42;27.17;;;12.50;91.10;;;;;;5046738;28;20487;-76
2022/03/26 09:41:39;;;;;;;47.08;26.27;;;12.60;91.50;;;;;;5049457;28;20068;-77
2022/03/26 09:44:06;;;;;;;50.08;26.33;;;12.70;90.50;;;;;;5038316;28;20055;-77
2022/03/26 09:46:35;;;;;;;49.97;26.08;;;12.80;88.00;;;;;;5049376;28;20048;-76
2022/03/26 09:49:02;;;;;;;52.72;25.38;;;12.90;86.10;;;;;;5047894;28;20037;-78
2022/03/26 09:51:28;;;;;;;47.13;24.45;;;13.10;86.70;;;;;;5044050;28;20040;-78
2022/03/26 09:53:54;;;;;;;50.53;25.65;;;13.10;84.10;;;;;;5047595;28;20094;-77
2022/03/26 09:56:23;;;;;;;47.05;25.95;;;13.20;81.00;;;;;;5044210;28;20045;-75
2022/03/26 09:58:52;;;;;;;50.85;26.38;;;13.20;82.30;;;;;;5046523;28;20052;-76
2022/03/26 10:01:19;;;;;;;47.05;26.48;;;13.30;82.60;;;;;;5048586;28;20479;-76
2022/03/26 10:04:08;;;;;;;52.83;26.30;;;13.30;83.70;;;;;;5048639;28;20463;-76
2022/03/26 10:06:34;;;;;;;47.65;25.75;;;13.40;79.60;;;;;;5049358;28;20059;-76
2022/03/26 10:08:59;;;;;;;40.75;21.92;;;13.50;79.10;;;;;;5043822;28;20123;-76
2022/03/26 10:11:25;;;;;;;41.13;21.58;;;13.60;77.60;;;;;;5048846;28;20433;-79
2022/03/26 10:13:52;;;;;;;39.05;20.30;;;13.70;78.70;;;;;;5045754;28;20053;-75
2022/03/26 10:16:18;;;;;;;42.53;20.95;;;13.70;78.00;;;;;;5046582;28;20045;-76
2022/03/26 10:18:45;;;;;;;44.83;22.52;;;13.80;75.80;;;;;;5048956;28;20041;-75
2022/03/26 10:21:16;;;;;;;38.42;20.85;;;13.90;77.30;;;;;;5045751;28;20119;-76
2022/03/26 10:23:49;;;;;;;36.85;20.35;;;14.00;77.30;;;;;;5049176;28;20037;-75
2022/03/26 10:26:21;;;;;;;35.45;19.48;;;14.00;75.90;;;;;;5048088;28;20041;-76
2022/03/26 10:28:58;;;;;;;40.45;20.25;;;14.10;74.10;;;;;;5045330;28;20152;-76
2022/03/26 10:34:16;;;;;;;38.00;20.23;;;14.20;76.40;;;;;;5047734;28;20261;-76
2022/03/26 10:36:47;;;;;;;35.08;20.27;;;14.30;77.60;;;;;;5045527;28;20041;-76
2022/03/26 10:39:20;;;;;;;34.60;19.67;;;14.30;78.10;;;;;;5049618;28;20424;-76
2022/03/26 10:41:48;;;;;;;28.92;16.80;;;14.40;78.80;;;;;;5047917;28;20568;-75
2022/03/26 10:44:16;;;;;;;30.23;17.15;;;14.50;77.80;;;;;;5049702;28;20041;-76
2022/03/26 10:46:53;;;;;;;32.90;17.02;;;14.60;79.00;;;;;;5049662;28;20081;-76
2022/03/26 10:49:36;;;;;;;31.73;16.73;;;14.60;78.20;;;;;;5032105;28;20311;-76
2022/03/26 10:52:10;;;;;;;26.48;16.83;;;14.70;81.40;;;;;;5045608;28;20124;-76
2022/03/26 10:54:36;;;;;;;30.60;17.90;;;14.80;82.80;;;;;;5047782;28;20045;-76
2022/03/26 10:57:02;;;;;;;26.20;17.30;;;14.80;83.30;;;;;;5048648;28;20470;-76
2022/03/26 10:59:28;;;;;;;27.30;18.15;;;14.80;83.70;;;;;;5050579;28;20037;-76
2022/03/26 11:01:54;;;;;;;30.00;18.50;;;14.90;84.60;;;;;;5050452;28;20076;-74
2022/03/26 11:04:20;;;;;;;34.58;19.27;;;14.90;85.90;;;;;;5051129;28;20060;-77
2022/03/26 11:06:47;;;;;;;27.55;18.27;;;15.00;84.90;;;;;;5048653;28;20154;-80
2022/03/26 11:09:17;;;;;;;28.40;18.23;;;15.00;87.10;;;;;;5046812;28;20080;-80
2022/03/26 11:11:47;;;;;;;28.48;17.83;;;15.10;88.30;;;;;;5051422;28;20041;-79
2022/03/26 11:14:22;;;;;;;26.33;17.08;;;15.10;89.30;;;;;;5043515;28;20079;-79
2022/03/26 11:17:21;;;;;;;28.70;17.95;;;15.20;90.60;;;;;;5042519;28;20112;-78
2022/03/26 11:20:02;;;;;;;29.25;18.40;;;15.20;90.70;;;;;;5046835;28;20360;-77
2022/03/26 11:23:11;;;;;;;24.23;15.18;;;15.20;90.80;;;;;;5042422;28;20060;-78
2022/03/26 11:26:08;;;;;;;26.40;15.98;;;15.30;90.20;;;;;;5049084;28;20045;-77
2022/03/26 11:29:09;;;;;;;27.30;17.50;;;15.30;90.00;;;;;;5045109;28;20371;-77
2022/03/26 11:31:39;;;;;;;33.25;18.77;;;15.40;90.40;;;;;;5036097;28;20059;-78
2022/03/26 11:34:08;;;;;;;26.67;17.73;;;15.40;89.30;;;;;;5050027;28;20439;-78
2022/03/26 11:36:34;;;;;;;24.35;17.58;;;15.40;90.10;;;;;;5048271;28;20107;-73
2022/03/26 11:39:12;;;;;;;29.98;18.85;;;15.40;90.10;;;;;;5047319;28;20048;-73
2022/03/26 11:41:39;;;;;;;31.48;18.67;;;15.50;89.60;;;;;;5049131;28;20068;-74
2022/03/26 11:44:07;;;;;;;28.08;17.58;;;15.60;89.60;;;;;;5044425;28;20037;-75
2022/03/26 11:50:41;;;;;;;20.02;13.13;;;15.70;91.00;;;;;;5045987;28;20085;-73
2022/03/26 11:52:33;;;;;;;23.23;13.73;;;15.80;89.10;;;;;;5048869;28;20114;-72
2022/03/26 11:55:17;;;;;;;19.40;13.65;;;15.80;89.50;;;;;;5048723;28;20115;-73
2022/03/26 11:57:42;;;;;;;21.98;14.70;;;15.80;88.60;;;;;;5043495;28;20160;-71
2022/03/26 12:00:20;;;;;;;18.73;13.85;;;15.90;89.30;;;;;;5051560;28;20132;-73
2022/03/26 12:02:52;;;;;;;23.65;14.07;;;15.90;89.00;;;;;;5043989;28;20483;-74
2022/03/26 12:08:15;;;;;;;20.63;12.95;;;16.00;89.60;;;;;;5040453;28;20198;-73
2022/03/26 12:10:43;;;;;;;21.15;13.27;;;16.00;88.20;;;;;;5044979;28;20037;-74
2022/03/26 12:13:09;;;;;;;19.75;12.98;;;16.00;89.00;;;;;;5050354;28;20116;-72
2022/03/26 12:15:36;;;;;;;20.35;14.35;;;16.10;87.80;;;;;;5049642;28;20040;-75
2022/03/26 12:18:12;;;;;;;20.58;13.45;;;16.20;87.50;;;;;;5046174;28;20138;-75
2022/03/26 12:20:44;;;;;;;21.25;12.70;;;16.30;87.90;;;;;;5048664;28;20524;-74
2022/03/26 12:23:23;;;;;;;19.42;13.70;;;16.30;86.70;;;;;;5048974;28;20052;-74
2022/03/26 12:25:51;;;;;;;18.60;12.45;;;16.40;85.70;;;;;;5051043;28;20080;-74
2022/03/26 12:28:37;;;;;;;20.73;12.75;;;16.30;84.60;;;;;;5048411;28;20040;-76
2022/03/26 12:31:10;;;;;;;16.25;11.95;;;16.40;85.50;;;;;;5041312;28;20048;-72
2022/03/26 12:33:43;;;;;;;15.88;10.98;;;16.50;84.40;;;;;;5050789;28;20055;-73
2022/03/26 12:36:09;;;;;;;17.58;10.70;;;16.40;81.90;;;;;;5048441;28;20060;-74
2022/03/26 12:38:36;;;;;;;16.60;10.80;;;16.40;81.10;;;;;;5049140;28;20041;-74
2022/03/26 12:41:05;;;;;;;17.95;11.57;;;16.40;81.70;;;;;;5047940;28;20037;-76
2022/03/26 12:43:31;;;;;;;18.85;13.02;;;16.50;82.70;;;;;;5044817;28;20478;-72
2022/03/26 12:45:57;;;;;;;14.57;10.43;;;16.50;82.80;;;;;;5034740;28;20057;-74